cloudbaseCUmx.php :- Version MX_2.2.4a - 22-April-2022
    copyright © 2023 Silver Acorn Weather 
    PHP Version 5.6.40


TIME and DATE
    Time Zone :- Chicago/America (GMT-5 hours)
    Daylight saving ? :- No
    Date/Time :- Wed, 01 Feb 2023 14:24:18 (Day)
    Last updated :- 13:20 Wednesday, February 01, 2023

INPUT ITEM: RAW DATA -> DERIVED
    Current temp :- 32.1 °F
    Dewpoint :- 14.1 °F
    Rain Fall :- 0.02 in
    Barometer :- 30 in
    Humidity :- 47 %
    Wind Speed :- 3 mph
    Wind Dir :- 247 degrees
    Cloud Altitude :- 4148 ft (ASL)
    Latitude :- 38.838889 N = Northern Hemisphere
    Season :- Winter
    Moon Age :- 11 days
    Moon Percent :- 86
    Day or Night ? :- Day
    Tag file time Interval :- 5 Minutes

CUMULUS CONDITIONS
    Cumulus conditions not in use
    Zambretti # :- 4

METAR CONDITONS - Metar Times UTC, Update Station times based on timezone setting
    $pathToMetFile :- ./cache/
    Metar - Rawdata :- 2023/02/01 18:54 KSUS 011854Z 23004KT 10SM CLR M01/M13 A3037 RMK AO2 PRESFR SLP294 T10111133 $
    Metar - Trimmed :- 011854Z 23004KT 10SM CLR M01/M13 A3037 RMK AO2 PRESFR SLP294 T10111133 $
    Metar - Decoded :- Not Raining; Sunny
    Now :- 1675279457 seconds
    Metar report timestamp :- 1675277640 seconds
    Age of File :- 30.28 minutes
    When to update Metar :- 1675276380 seconds   (Metar report timestamp plus 39 mins refresh time)
    Next Download in :- -51.28 Minutes (if  '-' then refresh page, if still '-' then Metar update overdue!)
    Metar file :- New File downloaded
     AUTO Metar station updates usually every 30 minutes. MANUAL Metar station updates usually Hourly.

OUTPUT DATA

    Background image file name :- ./images/cb/cb-bg-00wind.png
    $showAGL / ASL :- true
    Cloud Temp :- 10 °F
    $useWXrain :- true
    $tag interval :- 5
    Last rained :- 0.03 days ago
    Last rained Y-M-D h:m :- 2023-02-01 12:41
    No rain in last 5 minutes :- Not raining

SETTINGS
    $tagfile :- ./CUtags.php
    $time last update :- 13:20 on 01 February 2023
    $ICAO :- KSUS
    $pathToMetFile :- ./cache/
    $tz :- Chicago/America
    $pathToImages :- ./images/cb/  ( background, cloud, windsock and scale images )
    $srcmoonimgdir :- ./images/moon/  ( source of moon images )
    $dstmoonimgdir :- ./images/moon/  ( cbmoon.png )
    $switchSeasons :- true
    $showCldSource :- true
    $showCloudTemp :- true
    $showCaption :- true
    $showMoon :- true
    $showScale :- true
    $showWinsock :- false
    $showWindDir :- false
    $showWindSpd :- false
    $showTemp :- false
    $showHumidity :- false
    $showBaro :- false
    $alwaysShowCloud :- false
    $useCUHeight :- true
    $getMetar :- true
    $metarRefresh :- true
    $useMetarAtNight :- true
    $onlyUseMetar :- true
    $reportMistAt :- 25 ft
    $reportFogAt :- 10 ft
    $stationAltitude :- 532 ft ASL